Time;durP1;ratioP1;P1;durP2;ratioP2;P2;SDS_P1;SDS_P2;PMS_P1;PMS_P2;Temp;Humidity;BMP_temperature;BMP_pressure;BME280_temperature;BME280_humidity;BME280_pressure;Samples;Min_cycle;Max_cycle;Signal;HPM_P1;HPM_P2
2022/08/19 00:02:05;;;;;;;;;;;;;;;24.55;68.89;100393.22;7402833;19;1774;-57
2022/08/19 00:04:36;;;;;;;;;;;;;;;24.49;68.60;100412.84;7405272;19;1561;-57
2022/08/19 00:07:05;;;;;;;;;;;;;;;24.47;68.73;100401.38;7405051;19;1537;-62
2022/08/19 00:09:34;;;;;;;;;;;;;;;24.38;69.01;100397.03;7404742;19;1853;-62
2022/08/19 00:12:02;;;;;;;;;;;;;;;24.38;68.69;100408.66;7406570;19;1513;-62
2022/08/19 00:14:32;;;;;;;;;;;;;;;24.36;68.51;100401.78;7402450;19;1612;-63
2022/08/19 00:17:03;;;;;;;;;;;;;;;24.41;68.50;100399.34;7402837;19;1840;-62
2022/08/19 00:19:32;;;;;;;;;;;;;;;24.49;68.14;100407.44;7404379;19;1592;-61
2022/08/19 00:22:02;;;;;;;;;;;;;;;24.48;67.85;100408.44;7404172;19;1283;-62
2022/08/19 00:24:31;;;;;;;;;;;;;;;24.48;67.62;100411.13;7406231;19;1517;-63
2022/08/19 00:27:01;;;;;;;;;;;;;;;24.40;67.60;100394.97;7405314;19;1399;-62
2022/08/19 00:29:30;;;;;;;;;;;;;;;24.36;67.89;100407.19;7404896;19;1556;-63
2022/08/19 00:31:59;;;;;;;;;;;;;;;24.29;68.01;100409.75;7404852;19;1407;-62
2022/08/19 00:34:30;;;;;;;;;;;;;;;24.29;67.84;100400.78;7404484;19;1280;-62
2022/08/19 00:36:59;;;;;;;;;;;;;;;24.35;67.44;100400.94;7402210;19;1845;-63
2022/08/19 00:39:27;;;;;;;;;;;;;;;24.45;67.54;100405.25;7404579;19;1517;-62
2022/08/19 00:41:57;;;;;;;;;;;;;;;24.43;67.28;100386.50;7404894;19;1614;-62
2022/08/19 00:44:27;;;;;;;;;;;;;;;24.47;67.30;100404.06;7404198;19;1536;-63
2022/08/19 00:46:57;;;;;;;;;;;;;;;24.42;67.31;100391.06;7403942;19;1349;-62
2022/08/19 00:49:30;;;;;;;;;;;;;;;24.47;67.23;100404.06;7404710;19;1551;-62
2022/08/19 00:52:04;;;;;;;;;;;;;;;24.46;67.01;100402.38;7403917;19;1635;-63
2022/08/19 00:54:33;;;;;;;;;;;;;;;24.37;67.09;100406.13;7404274;19;1474;-63
2022/08/19 00:57:02;;;;;;;;;;;;;;;24.37;67.23;100408.84;7403555;19;1846;-62
2022/08/19 00:59:31;;;;;;;;;;;;;;;24.26;67.06;100393.06;7403022;19;1600;-62
2022/08/19 01:02:00;;;;;;;;;;;;;;;24.34;67.06;100403.81;7400439;19;1776;-62
2022/08/19 01:04:28;;;;;;;;;;;;;;;24.37;66.94;100398.03;7403320;19;1576;-63
2022/08/19 01:06:58;;;;;;;;;;;;;;;24.39;66.89;100391.44;7404010;19;1529;-63
2022/08/19 01:09:29;;;;;;;;;;;;;;;24.38;66.91;100388.91;7403253;19;1475;-63
2022/08/19 01:11:58;;;;;;;;;;;;;;;24.41;66.40;100373.19;7400913;19;1430;-62
2022/08/19 01:14:27;;;;;;;;;;;;;;;24.37;66.83;100381.81;7402976;19;1413;-62
2022/08/19 01:16:57;;;;;;;;;;;;;;;24.29;66.53;100382.75;7402074;19;1846;-62
2022/08/19 01:19:28;;;;;;;;;;;;;;;24.28;66.70;100393.72;7403351;19;1528;-63
2022/08/19 01:21:59;;;;;;;;;;;;;;;24.21;66.64;100393.59;7402548;19;1510;-62
2022/08/19 01:24:30;;;;;;;;;;;;;;;24.26;66.68;100402.00;7403659;19;1298;-63
2022/08/19 01:26:59;;;;;;;;;;;;;;;24.27;66.49;100394.72;7409909;19;1671;-63
2022/08/19 01:29:28;;;;;;;;;;;;;;;24.32;66.41;100395.88;7411688;19;1316;-62
2022/08/19 01:31:57;;;;;;;;;;;;;;;24.24;66.53;100387.00;7409389;19;1660;-63
2022/08/19 01:34:25;;;;;;;;;;;;;;;24.29;66.37;100390.84;7410611;19;1593;-63
2022/08/19 01:36:54;;;;;;;;;;;;;;;24.32;65.96;100395.03;7407471;19;1854;-62
2022/08/19 01:39:23;;;;;;;;;;;;;;;24.30;66.07;100397.91;7410930;19;1623;-62
2022/08/19 01:41:54;;;;;;;;;;;;;;;24.34;65.88;100409.22;7410635;19;1628;-62
2022/08/19 01:44:23;;;;;;;;;;;;;;;24.35;65.82;100405.47;7410277;19;1428;-62
2022/08/19 01:46:53;;;;;;;;;;;;;;;24.25;66.01;100392.19;7410162;19;1548;-62
2022/08/19 01:49:22;;;;;;;;;;;;;;;24.28;65.87;100401.84;7409603;19;1794;-62
2022/08/19 01:51:51;;;;;;;;;;;;;;;24.31;65.90;100429.34;7408111;19;1866;-62
2022/08/19 01:54:20;;;;;;;;;;;;;;;24.24;65.89;100417.56;7410109;19;1576;-63
2022/08/19 01:56:49;;;;;;;;;;;;;;;24.25;66.21;100424.63;7408600;19;1850;-62
2022/08/19 01:59:22;;;;;;;;;;;;;;;24.32;65.91;100416.66;7410077;19;1451;-62
2022/08/19 02:01:51;;;;;;;;;;;;;;;24.28;65.86;100420.75;7398892;19;1400;-57
2022/08/19 02:04:20;;;;;;;;;;;;;;;24.22;65.76;100435.81;7408601;19;1658;-57
2022/08/19 02:06:49;;;;;;;;;;;;;;;24.23;65.77;100434.78;7406589;19;1627;-57
2022/08/19 02:09:17;;;;;;;;;;;;;;;24.18;65.86;100438.03;7408941;19;1304;-57
2022/08/19 02:11:46;;;;;;;;;;;;;;;24.15;66.02;100422.19;7409522;19;1283;-57
2022/08/19 02:14:14;;;;;;;;;;;;;;;24.21;65.86;100432.28;7408561;19;1529;-57
2022/08/19 02:16:45;;;;;;;;;;;;;;;24.22;65.52;100423.13;7406857;19;1859;-57
2022/08/19 02:19:14;;;;;;;;;;;;;;;24.12;65.46;100419.81;7408425;19;1545;-57
2022/08/19 02:21:43;;;;;;;;;;;;;;;24.16;65.51;100439.22;7407993;19;1497;-57
2022/08/19 02:24:12;;;;;;;;;;;;;;;24.19;65.68;100434.31;7408912;19;1247;-57
2022/08/19 02:26:40;;;;;;;;;;;;;;;24.22;65.45;100439.34;7408460;19;1486;-57
2022/08/19 02:29:08;;;;;;;;;;;;;;;24.13;65.59;100428.75;7408717;19;1606;-57
2022/08/19 02:31:37;;;;;;;;;;;;;;;24.11;65.86;100437.03;7408425;19;1477;-57
2022/08/19 02:34:08;;;;;;;;;;;;;;;24.12;66.17;100424.38;7408526;19;1610;-57
2022/08/19 02:36:37;;;;;;;;;;;;;;;24.20;65.53;100446.78;7405118;19;1858;-57
2022/08/19 02:39:02;;;;;;;;;;;;;;;24.09;65.82;100446.34;7408558;19;1326;-56
2022/08/19 02:41:32;;;;;;;;;;;;;;;24.12;65.50;100438.72;7408377;19;1758;-57
2022/08/19 02:44:02;;;;;;;;;;;;;;;24.11;65.47;100447.84;7406263;19;1430;-56
2022/08/19 02:46:31;;;;;;;;;;;;;;;24.13;65.36;100448.53;7407024;19;1348;-57
2022/08/19 02:49:02;;;;;;;;;;;;;;;24.11;65.34;100442.44;7408388;19;1427;-57
2022/08/19 02:51:35;;;;;;;;;;;;;;;24.11;65.01;100457.81;7407497;19;1516;-54
2022/08/19 02:54:03;;;;;;;;;;;;;;;24.14;65.25;100469.09;7408382;19;1267;-57
2022/08/19 02:56:32;;;;;;;;;;;;;;;24.12;64.90;100444.13;7407788;19;1861;-57
2022/08/19 02:59:00;;;;;;;;;;;;;;;24.14;64.57;100452.91;7408805;19;1525;-57
2022/08/19 03:01:31;;;;;;;;;;;;;;;24.07;65.03;100448.38;7405974;19;1638;-57
2022/08/19 03:04:00;;;;;;;;;;;;;;;23.96;64.88;100449.63;7407096;19;1237;-57
2022/08/19 03:06:29;;;;;;;;;;;;;;;23.98;64.95;100463.78;7408289;19;1591;-56
2022/08/19 03:09:00;;;;;;;;;;;;;;;23.97;64.80;100445.88;7406605;19;1344;-56
2022/08/19 03:11:30;;;;;;;;;;;;;;;23.99;64.69;100454.66;7407242;19;1415;-57
2022/08/19 03:13:59;;;;;;;;;;;;;;;23.97;64.47;100471.06;7405435;19;1599;-57
2022/08/19 03:16:32;;;;;;;;;;;;;;;23.98;64.74;100455.69;7405117;19;1846;-57
2022/08/19 03:19:02;;;;;;;;;;;;;;;23.97;64.76;100472.91;7407739;19;1360;-56
2022/08/19 03:21:31;;;;;;;;;;;;;;;23.94;64.86;100457.91;7408029;19;1532;-57
2022/08/19 03:24:04;;;;;;;;;;;;;;;23.97;64.28;100456.69;7406548;19;1478;-57
2022/08/19 03:26:32;;;;;;;;;;;;;;;23.99;64.53;100454.66;7406470;19;1529;-57
2022/08/19 03:29:03;;;;;;;;;;;;;;;24.00;64.41;100462.59;7405510;19;1588;-57
2022/08/19 03:31:32;;;;;;;;;;;;;;;23.92;64.42;100457.22;7406064;19;1623;-57
2022/08/19 03:34:00;;;;;;;;;;;;;;;23.89;64.56;100464.84;7406906;19;1529;-56
2022/08/19 03:36:29;;;;;;;;;;;;;;;23.85;64.52;100463.50;7406032;19;1849;-57
2022/08/19 03:38:58;;;;;;;;;;;;;;;23.90;64.69;100471.94;7406731;19;1276;-57
2022/08/19 03:41:31;;;;;;;;;;;;;;;23.88;64.86;100473.97;7404977;19;1254;-57
2022/08/19 03:44:00;;;;;;;;;;;;;;;23.99;64.71;100479.84;7404870;19;1238;-62
2022/08/19 03:46:30;;;;;;;;;;;;;;;24.08;64.35;100485.19;7403944;19;1266;-62
2022/08/19 03:48:59;;;;;;;;;;;;;;;24.22;64.32;100482.56;7403716;19;1340;-63
2022/08/19 03:51:30;;;;;;;;;;;;;;;24.20;64.24;100487.31;7405455;19;1294;-63
2022/08/19 03:53:59;;;;;;;;;;;;;;;24.21;64.42;100501.66;7405872;19;1184;-62
2022/08/19 03:56:31;;;;;;;;;;;;;;;24.20;64.46;100487.31;7404136;19;1857;-65
2022/08/19 03:59:00;;;;;;;;;;;;;;;24.24;64.40;100495.09;7405856;19;1702;-63
2022/08/19 04:01:29;;;;;;;;;;;;;;;24.22;64.37;100487.97;7403250;19;1422;-64
2022/08/19 04:03:58;;;;;;;;;;;;;;;24.34;64.12;100501.09;7405653;19;1791;-65
2022/08/19 04:06:27;;;;;;;;;;;;;;;24.30;64.25;100495.19;7404913;19;1294;-64
2022/08/19 04:08:57;;;;;;;;;;;;;;;24.13;65.17;100501.69;7403956;19;1734;-62
2022/08/19 04:11:27;;;;;;;;;;;;;;;24.19;64.38;100488.34;7402691;19;1671;-70
2022/08/19 04:13:58;;;;;;;;;;;;;;;24.26;64.09;100482.22;7400816;19;1461;-67
2022/08/19 04:16:28;;;;;;;;;;;;;;;24.31;64.18;100498.75;7399380;19;1857;-63
2022/08/19 04:18:57;;;;;;;;;;;;;;;24.41;63.69;100504.75;7405460;19;1364;-64
2022/08/19 04:21:26;;;;;;;;;;;;;;;24.51;63.38;100497.31;7401852;19;1266;-63
2022/08/19 04:23:56;;;;;;;;;;;;;;;24.81;62.70;100500.16;7402072;19;1719;-63
2022/08/19 04:26:25;;;;;;;;;;;;;;;25.42;61.06;100505.56;7401322;19;1195;-64
2022/08/19 04:28:59;;;;;;;;;;;;;;;25.94;59.96;100520.97;7400106;19;1493;-62
2022/08/19 04:31:29;;;;;;;;;;;;;;;26.26;58.77;100512.59;7404285;19;1346;-64
2022/08/19 04:33:58;;;;;;;;;;;;;;;26.14;59.52;100502.25;6885793;19;10000648;-64
2022/08/19 04:36:28;;;;;;;;;;;;;;;25.59;61.16;100503.53;7392097;19;1875;-71
2022/08/19 04:38:57;;;;;;;;;;;;;;;25.85;60.24;100515.78;7397614;19;1246;-67
2022/08/19 04:44:09;;;;;;;;;;;;;;;25.05;63.09;100512.66;7395376;19;1748;-64
2022/08/19 04:46:37;;;;;;;;;;;;;;;24.93;63.13;100496.00;7393675;19;1580;-63
2022/08/19 04:49:08;;;;;;;;;;;;;;;24.90;63.08;100493.66;7397351;19;1497;-74
2022/08/19 04:51:37;;;;;;;;;;;;;;;24.91;63.33;100494.47;7395358;19;1449;-65
2022/08/19 04:54:05;;;;;;;;;;;;;;;24.90;63.86;100506.34;7399153;19;1441;-66
2022/08/19 04:56:34;;;;;;;;;;;;;;;24.90;63.59;100482.81;7400272;19;1852;-62
2022/08/19 04:59:03;;;;;;;;;;;;;;;24.97;63.34;100491.91;7399742;19;1726;-67
2022/08/19 05:01:36;;;;;;;;;;;;;;;24.97;63.58;100486.50;7403093;19;1487;-65
2022/08/19 05:04:06;;;;;;;;;;;;;;;24.81;64.01;100486.66;7407442;19;1325;-66
2022/08/19 05:06:35;;;;;;;;;;;;;;;24.87;63.75;100490.47;7411524;19;1304;-65
2022/08/19 05:09:05;;;;;;;;;;;;;;;24.87;63.69;100491.31;7412296;19;1525;-65
2022/08/19 05:11:34;;;;;;;;;;;;;;;24.90;63.86;100496.34;7409111;19;1312;-65
2022/08/19 05:14:03;;;;;;;;;;;;;;;24.91;63.58;100486.38;7411168;19;1425;-65
2022/08/19 05:16:34;;;;;;;;;;;;;;;24.94;63.67;100500.38;7410892;19;1849;-65
2022/08/19 05:24:25;;;;;;;;;;;;;;;24.98;63.40;100499.00;7413152;19;1532;-65
2022/08/19 05:26:56;;;;;;;;;;;;;;;25.02;63.50;100505.72;7411335;19;1541;-65
2022/08/19 05:29:26;;;;;;;;;;;;;;;25.04;63.48;100483.91;7411562;19;1411;-65
2022/08/19 05:31:57;;;;;;;;;;;;;;;25.04;63.38;100491.19;7411197;19;1498;-65
2022/08/19 05:34:27;;;;;;;;;;;;;;;25.09;63.20;100495.03;7409333;19;1539;-65
2022/08/19 05:36:56;;;;;;;;;;;;;;;25.11;63.09;100492.13;7410265;19;1860;-65
2022/08/19 05:39:26;;;;;;;;;;;;;;;25.19;62.97;100500.19;7409342;19;1571;-65
2022/08/19 05:41:57;;;;;;;;;;;;;;;25.19;63.07;100501.03;7405071;19;1336;-65
2022/08/19 05:44:26;;;;;;;;;;;;;;;25.25;63.07;100496.78;7410047;19;1471;-65
2022/08/19 05:46:57;;;;;;;;;;;;;;;25.25;62.99;100483.25;7407806;19;1536;-64
2022/08/19 05:49:26;;;;;;;;;;;;;;;25.29;62.92;100511.63;7410491;19;1631;-65
2022/08/19 05:51:55;;;;;;;;;;;;;;;25.34;62.89;100525.44;7409877;19;1520;-65
2022/08/19 05:54:23;;;;;;;;;;;;;;;25.30;62.83;100502.47;7410245;19;1231;-65
2022/08/19 05:56:52;;;;;;;;;;;;;;;25.32;63.02;100516.66;7411749;19;1845;-66
2022/08/19 05:59:21;;;;;;;;;;;;;;;25.34;62.96;100516.47;7409932;19;1385;-65
2022/08/19 06:01:54;;;;;;;;;;;;;;;25.26;62.98;100506.56;7408650;19;1651;-65
2022/08/19 06:04:26;;;;;;;;;;;;;;;25.32;62.90;100505.00;7410363;19;1525;-65
2022/08/19 06:06:56;;;;;;;;;;;;;;;25.32;63.01;100505.81;7409126;19;1659;-65
2022/08/19 06:09:24;;;;;;;;;;;;;;;25.34;63.19;100514.59;7410566;19;1528;-65
2022/08/19 06:11:57;;;;;;;;;;;;;;;25.34;63.17;100492.94;7408370;19;1527;-65
2022/08/19 06:14:26;;;;;;;;;;;;;;;25.36;63.01;100500.88;7409790;19;1533;-64
2022/08/19 06:16:55;;;;;;;;;;;;;;;25.38;63.03;100496.97;7409668;19;1853;-65
2022/08/19 06:19:28;;;;;;;;;;;;;;;25.44;63.03;100510.81;7409750;19;1610;-65
2022/08/19 06:21:57;;;;;;;;;;;;;;;25.42;62.99;100488.50;7408677;19;1537;-66
2022/08/19 06:24:27;;;;;;;;;;;;;;;25.40;63.14;100484.09;7409994;19;1520;-65
2022/08/19 06:26:57;;;;;;;;;;;;;;;25.45;62.85;100480.84;7410068;19;1611;-65
2022/08/19 06:29:26;;;;;;;;;;;;;;;25.45;63.06;100494.38;7409261;19;1536;-65
2022/08/19 06:31:56;;;;;;;;;;;;;;;25.45;62.86;100483.56;7409198;19;1531;-65
2022/08/19 06:34:28;;;;;;;;;;;;;;;25.48;62.90;100477.75;7408462;19;1536;-65
2022/08/19 06:36:56;;;;;;;;;;;;;;;25.50;62.92;100483.81;7409600;19;1854;-66
2022/08/19 06:39:25;;;;;;;;;;;;;;;25.48;63.21;100466.09;7409040;19;1545;-65
2022/08/19 06:41:56;;;;;;;;;;;;;;;25.50;63.02;100480.28;7409189;19;1486;-65
2022/08/19 06:44:25;;;;;;;;;;;;;;;25.54;62.83;100471.59;7409323;19;1415;-65
2022/08/19 06:46:54;;;;;;;;;;;;;;;25.56;62.85;100484.94;7408492;19;1544;-66
2022/08/19 06:49:22;;;;;;;;;;;;;;;25.56;63.02;100490.38;7408239;19;1619;-65
2022/08/19 06:51:56;;;;;;;;;;;;;;;25.59;62.62;100474.59;7407675;19;1529;-65
2022/08/19 06:54:25;;;;;;;;;;;;;;;25.57;62.86;100460.41;7407998;19;1614;-66
2022/08/19 06:56:54;;;;;;;;;;;;;;;25.58;62.85;100467.47;7409138;19;1521;-65
2022/08/19 06:59:26;;;;;;;;;;;;;;;25.60;62.89;100472.72;7409500;19;1520;-65
2022/08/19 07:01:56;;;;;;;;;;;;;;;25.61;62.96;100471.72;7406444;19;1656;-65
2022/08/19 07:04:25;;;;;;;;;;;;;;;25.66;62.62;100469.25;7407300;19;1494;-66
2022/08/19 07:07:02;;;;;;;;;;;;;;;25.63;62.77;100477.78;7407504;19;1619;-65
2022/08/19 07:09:30;;;;;;;;;;;;;;;25.67;62.60;100486.38;7408137;19;1577;-65
2022/08/19 07:11:59;;;;;;;;;;;;;;;25.67;62.67;100484.50;7408349;19;1525;-66
2022/08/19 07:14:28;;;;;;;;;;;;;;;25.68;62.80;100488.03;7408045;19;1437;-65
2022/08/19 07:16:58;;;;;;;;;;;;;;;25.66;62.56;100482.81;7405951;19;1714;-65
2022/08/19 07:19:28;;;;;;;;;;;;;;;25.64;62.84;100482.16;7404755;19;1899;-66
2022/08/19 07:21:58;;;;;;;;;;;;;;;25.62;62.69;100473.38;7406902;19;1558;-65
2022/08/19 07:24:29;;;;;;;;;;;;;;;25.70;62.67;100480.56;7407850;19;1529;-65
2022/08/19 07:27:00;;;;;;;;;;;;;;;25.69;62.53;100481.63;7407378;19;1536;-65
2022/08/19 07:29:28;;;;;;;;;;;;;;;25.71;62.60;100483.09;7407573;19;1529;-66
2022/08/19 07:31:58;;;;;;;;;;;;;;;25.72;62.72;100484.75;7406336;19;1652;-65
2022/08/19 07:34:27;;;;;;;;;;;;;;;25.73;62.52;100481.03;7406947;19;1608;-65
2022/08/19 07:36:56;;;;;;;;;;;;;;;25.73;62.87;100491.03;7406890;19;1623;-65
2022/08/19 07:39:25;;;;;;;;;;;;;;;25.70;62.96;100492.22;7403122;19;1861;-65
2022/08/19 07:41:57;;;;;;;;;;;;;;;24.94;63.18;100492.25;7405207;19;1324;-65
2022/08/19 07:44:25;;;;;;;;;;;;;;;24.48;64.41;100513.03;7406175;19;1392;-65
2022/08/19 07:46:55;;;;;;;;;;;;;;;24.24;64.58;100495.09;7406448;19;1528;-66
2022/08/19 07:49:23;;;;;;;;;;;;;;;23.94;64.30;100487.59;7406270;19;1312;-65
2022/08/19 07:51:56;;;;;;;;;;;;;;;23.90;63.57;100485.44;7405876;19;1252;-65
2022/08/19 07:54:25;;;;;;;;;;;;;;;24.11;63.65;100501.88;7405130;19;1528;-65
2022/08/19 07:56:54;;;;;;;;;;;;;;;24.14;63.20;100479.91;7406535;19;1664;-65
2022/08/19 07:59:25;;;;;;;;;;;;;;;24.24;63.11;100487.81;7405929;19;1845;-65
2022/08/19 08:01:53;;;;;;;;;;;;;;;24.17;62.85;100494.94;7403977;19;1536;-65
2022/08/19 08:09:46;;;;;;;;;;;;;;;24.05;62.90;100493.63;7405605;19;1321;-65
2022/08/19 08:12:16;;;;;;;;;;;;;;;24.09;62.13;100497.66;7404039;19;1289;-65
2022/08/19 08:14:48;;;;;;;;;;;;;;;23.93;62.70;100502.13;7402295;19;1444;-65
2022/08/19 08:17:17;;;;;;;;;;;;;;;23.99;62.68;100489.78;7403933;19;1625;-65
2022/08/19 08:19:46;;;;;;;;;;;;;;;23.87;62.52;100485.78;7404026;19;1850;-65
2022/08/19 08:23:22;;;;;;;;;;;;;;;23.72;62.52;100483.78;7404522;19;1357;-65
2022/08/19 08:25:14;;;;;;;;;;;;;;;23.75;62.60;100488.81;7404211;19;1906;-65
2022/08/19 08:27:44;;;;;;;;;;;;;;;23.90;62.07;100488.13;7405580;19;1320;-65
2022/08/19 08:30:17;;;;;;;;;;;;;;;23.93;62.19;100485.06;7406365;19;1389;-65
2022/08/19 08:32:45;;;;;;;;;;;;;;;23.85;61.77;100479.72;7404956;19;1750;-65
2022/08/19 08:35:16;;;;;;;;;;;;;;;23.75;62.31;100480.72;7402987;19;1735;-59
2022/08/19 08:37:44;;;;;;;;;;;;;;;23.82;62.32;100489.84;7404873;19;1846;-64
2022/08/19 08:40:19;;;;;;;;;;;;;;;23.86;61.74;100476.00;7403468;19;1387;-65
2022/08/19 08:42:53;;;;;;;;;;;;;;;23.77;61.95;100483.25;7404697;19;1611;-58
2022/08/19 08:45:25;;;;;;;;;;;;;;;23.82;61.73;100472.81;7404521;19;1344;-57
2022/08/19 08:47:56;;;;;;;;;;;;;;;23.73;61.61;100482.75;7404053;19;1553;-58
2022/08/19 08:50:28;;;;;;;;;;;;;;;23.64;62.05;100486.50;7403521;19;1539;-58
2022/08/19 08:52:58;;;;;;;;;;;;;;;23.66;61.96;100476.38;7404723;19;1540;-58
2022/08/19 08:55:29;;;;;;;;;;;;;;;23.64;61.96;100467.59;7402575;19;1847;-58
2022/08/19 08:58:01;;;;;;;;;;;;;;;23.76;61.82;100470.78;7403598;19;1853;-58
2022/08/19 09:00:34;;;;;;;;;;;;;;;23.75;61.66;100469.91;7403763;19;1360;-58
2022/08/19 09:03:05;;;;;;;;;;;;;;;23.74;61.65;100481.75;7404047;19;1364;-58
2022/08/19 09:05:42;;;;;;;;;;;;;;;23.77;61.38;100484.09;7403901;19;1497;-57
2022/08/19 09:08:15;;;;;;;;;;;;;;;23.66;61.82;100476.38;7403649;19;1525;-58
2022/08/19 09:10:48;;;;;;;;;;;;;;;23.78;61.16;100475.00;7403349;19;1703;-56
2022/08/19 09:13:21;;;;;;;;;;;;;;;23.68;61.64;100484.31;7402040;19;1294;-59
2022/08/19 09:15:55;;;;;;;;;;;;;;;23.87;61.08;100491.19;7399430;19;1523;-59
2022/08/19 09:18:23;;;;;;;;;;;;;;;23.93;62.25;100476.97;7401428;19;1857;-57
2022/08/19 09:20:52;;;;;;;;;;;;;;;24.11;62.98;100466.75;7401954;19;1322;-58
2022/08/19 09:23:21;;;;;;;;;;;;;;;24.19;63.24;100482.94;7401195;19;1264;-58
2022/08/19 09:25:49;;;;;;;;;;;;;;;24.22;64.74;100481.75;7401727;19;1568;-58
2022/08/19 09:28:17;;;;;;;;;;;;;;;24.22;65.60;100466.34;7403377;19;1382;-58
2022/08/19 09:30:46;;;;;;;;;;;;;;;24.26;65.95;100479.53;7402526;19;1726;-58
2022/08/19 09:33:17;;;;;;;;;;;;;;;24.35;66.21;100462.22;7403284;19;1521;-58
2022/08/19 09:35:46;;;;;;;;;;;;;;;24.36;66.70;100472.03;7403342;19;1379;-58
2022/08/19 09:38:14;;;;;;;;;;;;;;;24.39;66.90;100467.13;7403393;19;1853;-57
2022/08/19 09:40:42;;;;;;;;;;;;;;;24.44;67.17;100471.97;7401318;19;1670;-58
2022/08/19 09:43:11;;;;;;;;;;;;;;;24.49;67.47;100466.03;7400113;19;1529;-58
2022/08/19 09:45:39;;;;;;;;;;;;;;;24.49;67.80;100460.63;7402106;19;1399;-58
2022/08/19 09:48:07;;;;;;;;;;;;;;;24.50;68.16;100462.31;7407767;19;1407;-57
2022/08/19 09:50:38;;;;;;;;;;;;;;;24.42;67.19;100455.09;7408339;19;1595;-57
2022/08/19 09:53:07;;;;;;;;;;;;;;;24.16;67.52;100452.72;7408944;19;1790;-57
2022/08/19 09:55:35;;;;;;;;;;;;;;;24.04;68.62;100449.59;7408605;19;1729;-57
2022/08/19 09:58:04;;;;;;;;;;;;;;;24.15;70.27;100457.31;7409904;19;1865;-60
2022/08/19 10:00:33;;;;;;;;;;;;;;;24.31;70.04;100460.91;7408911;19;1350;-58
2022/08/19 10:03:02;;;;;;;;;;;;;;;24.40;69.82;100441.75;7410020;19;1419;-62
2022/08/19 10:08:13;;;;;;;;;;;;;;;24.55;70.61;100439.19;7405862;19;1366;-58
2022/08/19 10:10:43;;;;;;;;;;;;;;;24.58;70.80;100430.69;7407024;19;1544;-58
2022/08/19 10:13:12;;;;;;;;;;;;;;;24.67;72.08;100436.03;7408764;19;1481;-58
2022/08/19 10:15:40;;;;;;;;;;;;;;;24.67;72.13;100436.03;7405612;19;1585;-58
2022/08/19 10:18:09;;;;;;;;;;;;;;;24.66;71.72;100426.25;7408492;19;1859;-57
2022/08/19 10:20:38;;;;;;;;;;;;;;;24.64;71.89;100425.59;7409037;19;1273;-62
2022/08/19 10:23:06;;;;;;;;;;;;;;;24.58;71.74;100427.97;7407047;19;1355;-59
2022/08/19 10:25:37;;;;;;;;;;;;;;;24.34;71.54;100414.63;7407777;19;1413;-61
2022/08/19 10:28:07;;;;;;;;;;;;;;;24.24;70.15;100435.63;7410188;19;1039;-61
2022/08/19 10:30:35;;;;;;;;;;;;;;;24.07;69.81;100407.84;7408102;19;1875;-58
2022/08/19 10:33:03;;;;;;;;;;;;;;;23.99;69.10;100416.84;7407858;19;1618;-61
2022/08/19 10:35:32;;;;;;;;;;;;;;;23.86;69.00;100424.69;7408119;19;1608;-61
2022/08/19 10:38:01;;;;;;;;;;;;;;;23.84;68.20;100432.13;7407546;19;1512;-58
2022/08/19 10:40:30;;;;;;;;;;;;;;;23.78;68.11;100431.81;7405915;19;1857;-61
2022/08/19 10:43:01;;;;;;;;;;;;;;;23.82;67.18;100427.75;7409125;19;1401;-60
2022/08/19 10:45:30;;;;;;;;;;;;;;;23.79;66.76;100428.06;7408551;19;1416;-58
2022/08/19 10:47:58;;;;;;;;;;;;;;;23.70;66.95;100415.63;7409092;19;1596;-61
2022/08/19 10:53:08;;;;;;;;;;;;;;;23.68;65.85;100403.31;7408540;19;1651;-58
2022/08/19 10:58:24;;;;;;;;;;;;;;;23.71;65.34;100419.97;7407292;19;1859;-61
2022/08/19 11:00:54;;;;;;;;;;;;;;;23.62;65.11;100410.25;7406853;19;1507;-58
2022/08/19 11:03:22;;;;;;;;;;;;;;;23.60;65.17;100417.69;7407145;19;1852;-58
2022/08/19 11:05:59;;;;;;;;;;;;;;;23.62;64.77;100421.06;7406341;19;1506;-58
2022/08/19 11:08:28;;;;;;;;;;;;;;;23.62;64.70;100404.84;7408284;19;1532;-58
2022/08/19 11:11:00;;;;;;;;;;;;;;;23.60;64.56;100406.88;7408248;19;1679;-61
2022/08/19 11:13:32;;;;;;;;;;;;;;;23.58;64.46;100395.41;7407852;19;1718;-61
2022/08/19 11:16:01;;;;;;;;;;;;;;;23.51;64.27;100407.91;7408240;19;1494;-59
2022/08/19 11:18:29;;;;;;;;;;;;;;;23.52;64.29;100388.03;7407332;19;1871;-61
2022/08/19 11:21:07;;;;;;;;;;;;;;;23.48;64.14;100409.13;7406148;19;1795;-61
2022/08/19 11:23:35;;;;;;;;;;;;;;;23.50;64.13;100390.06;7406679;19;1572;-58
2022/08/19 11:26:03;;;;;;;;;;;;;;;23.47;64.34;100403.88;7406629;19;1513;-61
2022/08/19 11:28:34;;;;;;;;;;;;;;;23.55;63.89;100402.00;7406712;19;1553;-58
2022/08/19 11:31:03;;;;;;;;;;;;;;;23.58;63.33;100376.53;7407248;19;1579;-61
2022/08/19 11:33:32;;;;;;;;;;;;;;;23.45;63.44;100387.03;7406796;19;1507;-61
2022/08/19 11:36:02;;;;;;;;;;;;;;;23.48;63.24;100378.59;7406564;19;1391;-58
2022/08/19 11:38:30;;;;;;;;;;;;;;;23.46;63.13;100370.66;7405254;19;2167;-61
2022/08/19 11:40:59;;;;;;;;;;;;;;;23.40;63.04;100379.47;7406382;19;1344;-58
2022/08/19 11:43:28;;;;;;;;;;;;;;;23.35;63.04;100382.66;7405952;19;1589;-61
2022/08/19 11:46:00;;;;;;;;;;;;;;;23.46;62.78;100377.91;7407018;19;1271;-61
2022/08/19 11:48:28;;;;;;;;;;;;;;;23.39;62.52;100384.00;7406032;19;1608;-58
2022/08/19 11:50:57;;;;;;;;;;;;;;;23.39;62.58;100361.56;7405841;19;1789;-58
2022/08/19 11:53:26;;;;;;;;;;;;;;;23.36;62.65;100360.06;7405492;19;1652;-61
2022/08/19 11:55:56;;;;;;;;;;;;;;;23.39;62.48;100362.41;7403888;19;1603;-58
2022/08/19 11:58:25;;;;;;;;;;;;;;;23.48;62.49;100370.50;7404759;19;1534;-58
2022/08/19 12:00:53;;;;;;;;;;;;;;;23.51;62.66;100360.19;7403933;19;1853;-61
2022/08/19 12:03:24;;;;;;;;;;;;;;;23.67;63.66;100366.53;7405319;19;1525;-59
2022/08/19 12:05:53;;;;;;;;;;;;;;;23.83;64.14;100358.38;7403951;19;1427;-58
2022/08/19 12:08:21;;;;;;;;;;;;;;;23.98;64.34;100350.34;7405593;19;1386;-58
2022/08/19 12:10:50;;;;;;;;;;;;;;;24.06;64.63;100363.81;7402387;19;1777;-57
2022/08/19 12:13:19;;;;;;;;;;;;;;;24.15;65.17;100346.53;7405616;19;1722;-58
2022/08/19 12:15:48;;;;;;;;;;;;;;;24.12;65.92;100338.78;7402202;19;1668;-63
2022/08/19 12:18:17;;;;;;;;;;;;;;;24.13;66.34;100348.56;7405479;19;1356;-62
2022/08/19 12:20:47;;;;;;;;;;;;;;;24.26;66.40;100336.31;7402857;19;1869;-63
2022/08/19 12:23:16;;;;;;;;;;;;;;;24.29;66.74;100330.53;7405118;19;1587;-58
2022/08/19 12:25:51;;;;;;;;;;;;;;;24.36;67.26;100345.84;7404329;19;1517;-57
2022/08/19 12:28:20;;;;;;;;;;;;;;;24.35;67.10;100335.22;7405893;19;970;-56
2022/08/19 12:30:49;;;;;;;;;;;;;;;24.41;67.31;100334.50;7403654;19;1655;-57
2022/08/19 12:33:18;;;;;;;;;;;;;;;24.44;67.30;100327.91;7405029;19;1533;-58
2022/08/19 12:35:50;;;;;;;;;;;;;;;24.52;67.67;100336.81;7404020;19;1777;-59
2022/08/19 12:38:19;;;;;;;;;;;;;;;24.56;67.64;100335.41;7404789;19;1376;-57
2022/08/19 12:40:48;;;;;;;;;;;;;;;24.65;68.09;100338.91;7401915;19;1854;-59
2022/08/19 12:43:17;;;;;;;;;;;;;;;24.66;67.91;100326.22;7404941;19;1592;-62
2022/08/19 12:45:46;;;;;;;;;;;;;;;24.69;67.86;100336.63;7404385;19;1427;-59
2022/08/19 12:48:14;;;;;;;;;;;;;;;24.80;67.53;100352.44;7404485;19;1340;-56
2022/08/19 12:50:44;;;;;;;;;;;;;;;24.89;66.95;100331.53;7404439;19;1540;-56
2022/08/19 12:53:16;;;;;;;;;;;;;;;25.00;66.51;100326.50;7404241;19;1261;-59
2022/08/19 12:55:45;;;;;;;;;;;;;;;25.02;66.31;100324.47;7403893;19;1784;-55
2022/08/19 12:58:13;;;;;;;;;;;;;;;25.07;66.57;100317.66;7403868;19;1659;-59
2022/08/19 13:00:42;;;;;;;;;;;;;;;25.13;66.11;100333.16;7401788;19;1857;-60
2022/08/19 13:03:10;;;;;;;;;;;;;;;25.16;66.32;100324.66;7404109;19;1521;-56
2022/08/19 13:05:39;;;;;;;;;;;;;;;25.18;66.19;100333.44;7404256;19;1399;-60
2022/08/19 13:08:07;;;;;;;;;;;;;;;25.21;65.74;100319.53;7403194;19;1478;-56
2022/08/19 13:10:38;;;;;;;;;;;;;;;25.25;65.72;100331.69;7401567;19;1758;-60
2022/08/19 13:13:09;;;;;;;;;;;;;;;25.24;65.96;100324.59;7402565;19;1550;-60
2022/08/19 13:15:39;;;;;;;;;;;;;;;25.22;66.09;100315.00;7401420;19;1525;-56
2022/08/19 13:18:08;;;;;;;;;;;;;;;25.28;65.63;100320.47;7403539;19;1612;-59
2022/08/19 13:20:37;;;;;;;;;;;;;;;25.23;66.19;100317.50;7400546;19;1864;-56